createdAt,value
2022-08-08T00:08:52.330Z,3.40
2022-08-08T00:19:07.745Z,2.20
2022-08-08T00:29:44.332Z,3.30
2022-08-08T00:41:11.528Z,2.80
2022-08-08T00:50:53.391Z,3.10
2022-08-08T01:01:13.761Z,2.60
2022-08-08T01:12:00.303Z,3.20
2022-08-08T01:22:35.658Z,2.60
2022-08-08T01:33:28.000Z,2.60
2022-08-08T01:43:55.701Z,3.00
2022-08-08T01:55:45.513Z,3.80
2022-08-08T02:04:44.151Z,2.80
2022-08-08T02:15:00.798Z,3.20
2022-08-08T02:25:16.790Z,3.50
2022-08-08T02:36:16.536Z,2.70
2022-08-08T02:46:47.225Z,3.80
2022-08-08T02:57:40.370Z,3.20
2022-08-08T03:08:26.918Z,2.70
2022-08-08T03:18:39.224Z,3.50
2022-08-08T03:28:51.347Z,3.40
2022-08-08T03:39:14.143Z,3.10
2022-08-08T03:49:57.995Z,3.20
2022-08-08T04:00:02.811Z,2.90
2022-08-08T04:10:14.310Z,3.50
2022-08-08T04:20:20.122Z,2.60
2022-08-08T04:30:40.024Z,2.80
2022-08-08T04:40:54.351Z,2.70
2022-08-08T04:51:00.628Z,2.60
2022-08-08T05:01:10.834Z,1.40
2022-08-08T05:11:24.313Z,1.30
2022-08-08T05:21:43.599Z,1.30
2022-08-08T05:32:04.492Z,1.10
2022-08-08T05:42:14.241Z,1.30
2022-08-08T05:52:31.635Z,1.10
2022-08-08T06:02:56.973Z,1.00
2022-08-08T06:13:05.947Z,0.90
2022-08-08T06:23:12.263Z,1.60
2022-08-08T06:33:37.327Z,1.20
2022-08-08T06:43:59.428Z,0.80
2022-08-08T06:54:07.317Z,0.90
2022-08-08T07:04:37.314Z,1.10
2022-08-08T07:14:54.552Z,1.50
2022-08-08T07:25:07.183Z,1.80
2022-08-08T07:35:14.516Z,2.70
2022-08-08T07:45:20.829Z,2.70
2022-08-08T07:55:29.694Z,2.80
2022-08-08T08:05:45.193Z,3.30
2022-08-08T08:16:05.307Z,1.00
2022-08-08T08:26:11.425Z,1.00
2022-08-08T08:36:21.983Z,0.60
2022-08-08T08:46:33.362Z,1.10
2022-08-08T08:56:41.461Z,0.60
2022-08-08T09:06:56.976Z,0.70
2022-08-08T09:17:11.468Z,0.90
2022-08-08T09:27:21.295Z,0.40
2022-08-08T09:37:58.206Z,0.40
2022-08-08T09:48:15.982Z,0.60
2022-08-08T09:58:40.306Z,0.50
2022-08-08T10:08:48.099Z,0.70
2022-08-08T10:19:05.426Z,0.60
2022-08-08T10:29:21.082Z,0.40
2022-08-08T10:39:43.058Z,0.50
2022-08-08T11:00:12.448Z,0.30
2022-08-08T11:10:28.827Z,0.70
2022-08-08T11:20:44.786Z,0.60
2022-08-08T11:31:00.857Z,0.50
2022-08-08T11:41:10.776Z,0.60
2022-08-08T11:51:38.996Z,0.80
2022-08-08T12:01:44.507Z,0.30
2022-08-08T12:11:50.759Z,0.70
2022-08-08T12:22:13.822Z,0.90
2022-08-08T12:32:27.297Z,0.80
2022-08-08T12:42:47.857Z,1.10
2022-08-08T12:52:57.072Z,1.40
2022-08-08T13:03:03.267Z,1.10
2022-08-08T13:13:09.451Z,0.40
2022-08-08T13:23:41.916Z,0.90
2022-08-08T13:33:50.069Z,0.50
2022-08-08T13:43:57.606Z,0.90
2022-08-08T13:54:03.773Z,1.00
2022-08-08T14:04:09.541Z,0.60
2022-08-08T14:14:20.872Z,0.90
2022-08-08T14:24:36.440Z,0.60
2022-08-08T14:34:43.255Z,1.20
2022-08-08T14:45:00.322Z,0.60
2022-08-08T14:55:07.846Z,0.50
2022-08-08T15:05:14.128Z,0.50
2022-08-08T15:16:03.320Z,0.80
2022-08-08T15:25:46.946Z,1.30
2022-08-08T15:35:52.772Z,0.40
2022-08-08T15:45:58.728Z,0.50
2022-08-08T15:56:04.958Z,0.50
2022-08-08T16:06:14.289Z,0.60
2022-08-08T16:16:22.204Z,0.70
2022-08-08T16:26:34.078Z,0.50
2022-08-08T16:36:42.068Z,0.80
2022-08-08T16:46:49.076Z,0.70
2022-08-08T16:57:22.796Z,0.60
2022-08-08T17:07:27.852Z,1.00
2022-08-08T17:18:00.948Z,0.80
2022-08-08T17:28:00.111Z,0.70
2022-08-08T17:38:07.340Z,0.90
2022-08-08T17:48:14.987Z,1.20
2022-08-08T17:58:36.584Z,1.10
2022-08-08T18:08:43.714Z,2.00
2022-08-08T18:18:53.172Z,1.00
2022-08-08T18:29:00.092Z,1.90
2022-08-08T18:39:07.585Z,1.10
2022-08-08T18:49:14.057Z,1.40
2022-08-08T18:59:19.957Z,1.00
2022-08-08T19:09:49.646Z,1.30
2022-08-08T19:20:02.712Z,1.50
2022-08-08T19:30:24.089Z,1.40
2022-08-08T19:40:32.750Z,1.30
2022-08-08T19:50:39.497Z,1.20
2022-08-08T20:00:45.730Z,1.40
2022-08-08T20:10:51.490Z,1.50
2022-08-08T20:20:57.467Z,1.60
2022-08-08T20:31:03.718Z,1.60
2022-08-08T20:41:17.437Z,1.40
2022-08-08T20:51:25.186Z,1.50
2022-08-08T21:02:05.569Z,1.30
2022-08-08T21:12:04.723Z,1.40
2022-08-08T21:22:10.539Z,1.70
2022-08-08T21:32:24.810Z,1.60
2022-08-08T21:42:31.208Z,1.40
2022-08-08T21:54:22.738Z,1.60
2022-08-08T22:03:02.630Z,2.20
2022-08-08T22:13:17.628Z,1.70
2022-08-08T22:23:32.770Z,1.40
2022-08-08T22:34:13.741Z,1.60
2022-08-08T22:44:08.160Z,1.60
2022-08-08T22:54:31.666Z,1.70
2022-08-08T23:04:55.990Z,1.80
2022-08-08T23:15:11.230Z,1.20
2022-08-08T23:25:29.323Z,2.00
2022-08-08T23:35:59.075Z,1.40
2022-08-08T23:49:04.762Z,1.40
2022-08-08T23:56:32.544Z,1.50
